sensor_id;sensor_type;location;lat;lon;timestamp;temperature;humidity
35305;DHT22;26433;48.034;-1.764;2022-10-16T05:05:02;16.30;97.60
35305;DHT22;26433;48.034;-1.764;2022-10-16T05:10:06;16.40;97.70
35305;DHT22;26433;48.034;-1.764;2022-10-16T05:15:10;16.40;97.70
35305;DHT22;26433;48.034;-1.764;2022-10-16T05:20:15;16.50;97.70
35305;DHT22;26433;48.034;-1.764;2022-10-16T05:25:19;16.50;97.70
35305;DHT22;26433;48.034;-1.764;2022-10-16T05:30:22;16.60;97.60
35305;DHT22;26433;48.034;-1.764;2022-10-16T05:35:27;16.70;97.60
35305;DHT22;26433;48.034;-1.764;2022-10-16T05:40:31;16.70;97.50
35305;DHT22;26433;48.034;-1.764;2022-10-16T05:45:34;16.80;97.60
35305;DHT22;26433;48.034;-1.764;2022-10-16T05:50:39;16.80;97.70
35305;DHT22;26433;48.034;-1.764;2022-10-16T05:55:43;16.90;97.60
35305;DHT22;26433;48.034;-1.764;2022-10-16T06:00:56;17.00;97.40
35305;DHT22;26433;48.034;-1.764;2022-10-16T06:06:07;17.10;97.40
35305;DHT22;26433;48.034;-1.764;2022-10-16T06:11:15;17.10;97.40
35305;DHT22;26433;48.034;-1.764;2022-10-16T06:16:19;17.20;97.50
35305;DHT22;26433;48.034;-1.764;2022-10-16T06:21:25;17.20;97.40
35305;DHT22;26433;48.034;-1.764;2022-10-16T06:26:30;17.30;97.40
35305;DHT22;26433;48.034;-1.764;2022-10-16T06:31:34;17.40;97.30
35305;DHT22;26433;48.034;-1.764;2022-10-16T06:36:39;17.40;97.40
35305;DHT22;26433;48.034;-1.764;2022-10-16T06:41:43;17.40;97.40
35305;DHT22;26433;48.034;-1.764;2022-10-16T06:46:49;17.40;97.50
35305;DHT22;26433;48.034;-1.764;2022-10-16T06:51:54;17.30;97.70
35305;DHT22;26433;48.034;-1.764;2022-10-16T06:56:58;17.20;98.00
35305;DHT22;26433;48.034;-1.764;2022-10-16T07:02:03;17.10;98.30
35305;DHT22;26433;48.034;-1.764;2022-10-16T07:07:09;17.20;98.20
35305;DHT22;26433;48.034;-1.764;2022-10-16T07:12:12;17.20;98.10
35305;DHT22;26433;48.034;-1.764;2022-10-16T07:17:16;17.30;98.00
35305;DHT22;26433;48.034;-1.764;2022-10-16T07:22:21;17.30;97.90
35305;DHT22;26433;48.034;-1.764;2022-10-16T07:27:25;17.40;97.90
35305;DHT22;26433;48.034;-1.764;2022-10-16T07:32:29;17.40;97.80
35305;DHT22;26433;48.034;-1.764;2022-10-16T07:37:34;17.40;97.90
35305;DHT22;26433;48.034;-1.764;2022-10-16T07:42:38;17.40;98.10
35305;DHT22;26433;48.034;-1.764;2022-10-16T07:47:42;17.40;97.80
35305;DHT22;26433;48.034;-1.764;2022-10-16T07:52:47;17.40;98.00
35305;DHT22;26433;48.034;-1.764;2022-10-16T07:57:50;17.50;98.00
35305;DHT22;26433;48.034;-1.764;2022-10-16T08:02:54;17.50;97.80
35305;DHT22;26433;48.034;-1.764;2022-10-16T08:08:00;17.60;97.60
35305;DHT22;26433;48.034;-1.764;2022-10-16T08:13:04;17.70;97.80
35305;DHT22;26433;48.034;-1.764;2022-10-16T08:18:09;17.90;97.60
35305;DHT22;26433;48.034;-1.764;2022-10-16T08:23:14;18.10;97.30
35305;DHT22;26433;48.034;-1.764;2022-10-16T08:28:19;18.20;96.70
35305;DHT22;26433;48.034;-1.764;2022-10-16T08:33:22;18.30;96.50
35305;DHT22;26433;48.034;-1.764;2022-10-16T08:38:27;18.30;96.30
35305;DHT22;26433;48.034;-1.764;2022-10-16T08:43:43;18.30;96.30
35305;DHT22;26433;48.034;-1.764;2022-10-16T08:48:52;18.40;96.20
35305;DHT22;26433;48.034;-1.764;2022-10-16T08:53:58;18.40;95.90
35305;DHT22;26433;48.034;-1.764;2022-10-16T08:59:06;18.40;95.90
35305;DHT22;26433;48.034;-1.764;2022-10-16T09:04:40;18.50;95.70
35305;DHT22;26433;48.034;-1.764;2022-10-16T09:09:58;18.60;95.60
35305;DHT22;26433;48.034;-1.764;2022-10-16T09:15:14;18.80;95.20
35305;DHT22;26433;48.034;-1.764;2022-10-16T09:20:29;19.00;95.00
35305;DHT22;26433;48.034;-1.764;2022-10-16T09:25:35;19.00;94.70
35305;DHT22;26433;48.034;-1.764;2022-10-16T09:30:41;19.00;94.60
35305;DHT22;26433;48.034;-1.764;2022-10-16T09:35:45;19.00;94.50
35305;DHT22;26433;48.034;-1.764;2022-10-16T09:40:52;19.00;94.30
35305;DHT22;26433;48.034;-1.764;2022-10-16T09:46:05;18.90;94.40
35305;DHT22;26433;48.034;-1.764;2022-10-16T09:51:18;19.00;94.30
35305;DHT22;26433;48.034;-1.764;2022-10-16T09:56:25;19.10;93.80
35305;DHT22;26433;48.034;-1.764;2022-10-16T10:01:34;19.10;93.50
35305;DHT22;26433;48.034;-1.764;2022-10-16T10:06:43;19.30;93.10
35305;DHT22;26433;48.034;-1.764;2022-10-16T10:11:53;19.50;92.40
35305;DHT22;26433;48.034;-1.764;2022-10-16T10:17:13;19.50;92.20
35305;DHT22;26433;48.034;-1.764;2022-10-16T10:22:27;19.50;91.70
35305;DHT22;26433;48.034;-1.764;2022-10-16T10:27:38;19.40;91.90
35305;DHT22;26433;48.034;-1.764;2022-10-16T10:32:48;19.40;91.90
35305;DHT22;26433;48.034;-1.764;2022-10-16T10:38:06;19.20;92.00
35305;DHT22;26433;48.034;-1.764;2022-10-16T10:43:22;19.10;92.20
35305;DHT22;26433;48.034;-1.764;2022-10-16T10:48:50;18.90;92.40
35305;DHT22;26433;48.034;-1.764;2022-10-16T10:54:03;18.80;92.50
35305;DHT22;26433;48.034;-1.764;2022-10-16T10:59:25;18.70;92.70
35305;DHT22;26433;48.034;-1.764;2022-10-16T11:04:49;18.70;92.80
35305;DHT22;26433;48.034;-1.764;2022-10-16T11:09:58;18.50;92.90
35305;DHT22;26433;48.034;-1.764;2022-10-16T11:15:12;18.40;93.10
35305;DHT22;26433;48.034;-1.764;2022-10-16T11:20:20;18.40;93.20
35305;DHT22;26433;48.034;-1.764;2022-10-16T11:25:28;18.40;93.20
35305;DHT22;26433;48.034;-1.764;2022-10-16T11:30:41;18.30;93.40
35305;DHT22;26433;48.034;-1.764;2022-10-16T11:35:47;18.20;93.70
35305;DHT22;26433;48.034;-1.764;2022-10-16T11:40:54;18.20;93.80
35305;DHT22;26433;48.034;-1.764;2022-10-16T11:46:07;18.20;93.90
35305;DHT22;26433;48.034;-1.764;2022-10-16T11:51:17;18.10;94.00
35305;DHT22;26433;48.034;-1.764;2022-10-16T11:56:25;18.20;94.20
35305;DHT22;26433;48.034;-1.764;2022-10-16T12:01:36;18.20;94.30
35305;DHT22;26433;48.034;-1.764;2022-10-16T12:06:44;18.20;94.40
35305;DHT22;26433;48.034;-1.764;2022-10-16T12:11:50;18.30;94.30
35305;DHT22;26433;48.034;-1.764;2022-10-16T12:16:57;18.50;94.20
35305;DHT22;26433;48.034;-1.764;2022-10-16T12:22:03;18.60;94.20
35305;DHT22;26433;48.034;-1.764;2022-10-16T12:27:21;18.70;94.10
35305;DHT22;26433;48.034;-1.764;2022-10-16T12:32:31;18.80;94.20
35305;DHT22;26433;48.034;-1.764;2022-10-16T12:37:49;18.80;94.20
35305;DHT22;26433;48.034;-1.764;2022-10-16T12:42:53;18.80;94.50
35305;DHT22;26433;48.034;-1.764;2022-10-16T12:47:59;18.70;94.60
35305;DHT22;26433;48.034;-1.764;2022-10-16T12:53:15;18.70;95.00
35305;DHT22;26433;48.034;-1.764;2022-10-16T12:58:33;18.80;95.00
35305;DHT22;26433;48.034;-1.764;2022-10-16T13:03:53;19.00;95.20
35305;DHT22;26433;48.034;-1.764;2022-10-16T13:09:17;19.20;94.80
35305;DHT22;26433;48.034;-1.764;2022-10-16T13:14:36;19.40;94.80
35305;DHT22;26433;48.034;-1.764;2022-10-16T13:19:48;19.60;94.50
35305;DHT22;26433;48.034;-1.764;2022-10-16T13:25:05;19.80;94.40
35305;DHT22;26433;48.034;-1.764;2022-10-16T13:30:18;20.00;94.10
35305;DHT22;26433;48.034;-1.764;2022-10-16T13:35:25;20.30;93.90
35305;DHT22;26433;48.034;-1.764;2022-10-16T13:40:29;20.60;93.70
35305;DHT22;26433;48.034;-1.764;2022-10-16T13:45:33;21.00;93.40
35305;DHT22;26433;48.034;-1.764;2022-10-16T13:50:38;21.30;93.00
35305;DHT22;26433;48.034;-1.764;2022-10-16T13:55:42;21.50;92.70
35305;DHT22;26433;48.034;-1.764;2022-10-16T14:00:54;21.80;92.50
35305;DHT22;26433;48.034;-1.764;2022-10-16T14:06:02;21.90;92.40
35305;DHT22;26433;48.034;-1.764;2022-10-16T14:11:07;22.00;92.60
35305;DHT22;26433;48.034;-1.764;2022-10-16T14:16:18;22.20;92.70
35305;DHT22;26433;48.034;-1.764;2022-10-16T14:21:24;22.50;92.10
35305;DHT22;26433;48.034;-1.764;2022-10-16T14:26:29;22.50;92.10
35305;DHT22;26433;48.034;-1.764;2022-10-16T14:31:33;22.80;92.40
35305;DHT22;26433;48.034;-1.764;2022-10-16T14:36:41;22.60;92.30
35305;DHT22;26433;48.034;-1.764;2022-10-16T14:41:46;22.70;92.30
35305;DHT22;26433;48.034;-1.764;2022-10-16T14:46:50;22.60;92.50
35305;DHT22;26433;48.034;-1.764;2022-10-16T14:51:55;22.60;92.30
35305;DHT22;26433;48.034;-1.764;2022-10-16T14:57:01;22.70;92.40
35305;DHT22;26433;48.034;-1.764;2022-10-16T15:02:18;22.70;92.10
35305;DHT22;26433;48.034;-1.764;2022-10-16T15:07:25;22.80;92.30
35305;DHT22;26433;48.034;-1.764;2022-10-16T15:12:29;22.80;92.10
35305;DHT22;26433;48.034;-1.764;2022-10-16T15:17:33;22.80;92.20
35305;DHT22;26433;48.034;-1.764;2022-10-16T15:22:38;22.80;92.20
35305;DHT22;26433;48.034;-1.764;2022-10-16T15:27:41;22.70;92.30
35305;DHT22;26433;48.034;-1.764;2022-10-16T15:32:45;22.60;92.50
35305;DHT22;26433;48.034;-1.764;2022-10-16T15:37:50;22.50;92.60
35305;DHT22;26433;48.034;-1.764;2022-10-16T15:42:54;22.50;92.60
35305;DHT22;26433;48.034;-1.764;2022-10-16T15:47:58;22.50;92.60
35305;DHT22;26433;48.034;-1.764;2022-10-16T15:53:03;22.40;92.80
35305;DHT22;26433;48.034;-1.764;2022-10-16T15:58:06;22.30;93.00
35305;DHT22;26433;48.034;-1.764;2022-10-16T16:03:10;22.30;93.10
35305;DHT22;26433;48.034;-1.764;2022-10-16T16:08:15;22.20;93.30
35305;DHT22;26433;48.034;-1.764;2022-10-16T16:13:19;22.20;93.30
35305;DHT22;26433;48.034;-1.764;2022-10-16T16:18:22;22.20;93.20
35305;DHT22;26433;48.034;-1.764;2022-10-16T16:23:28;22.10;93.40
35305;DHT22;26433;48.034;-1.764;2022-10-16T16:28:32;22.10;93.20
35305;DHT22;26433;48.034;-1.764;2022-10-16T16:33:35;22.00;93.20
35305;DHT22;26433;48.034;-1.764;2022-10-16T16:38:41;21.70;93.00
35305;DHT22;26433;48.034;-1.764;2022-10-16T16:43:45;22.00;92.90
35305;DHT22;26433;48.034;-1.764;2022-10-16T16:48:49;22.00;92.80
35305;DHT22;26433;48.034;-1.764;2022-10-16T16:53:56;21.90;92.90
35305;DHT22;26433;48.034;-1.764;2022-10-16T16:59:00;21.80;92.90
35305;DHT22;26433;48.034;-1.764;2022-10-16T17:04:05;21.70;93.00
35305;DHT22;26433;48.034;-1.764;2022-10-16T17:09:11;21.60;93.00
35305;DHT22;26433;48.034;-1.764;2022-10-16T17:14:17;21.50;93.10
35305;DHT22;26433;48.034;-1.764;2022-10-16T17:19:21;21.40;93.20
35305;DHT22;26433;48.034;-1.764;2022-10-16T17:24:26;21.30;93.30
35305;DHT22;26433;48.034;-1.764;2022-10-16T17:29:30;21.20;93.30
35305;DHT22;26433;48.034;-1.764;2022-10-16T17:34:33;21.10;93.30
35305;DHT22;26433;48.034;-1.764;2022-10-16T17:39:39;21.00;93.40
35305;DHT22;26433;48.034;-1.764;2022-10-16T17:44:43;20.90;93.50
35305;DHT22;26433;48.034;-1.764;2022-10-16T17:49:47;20.80;93.70
35305;DHT22;26433;48.034;-1.764;2022-10-16T17:54:52;20.80;93.70
35305;DHT22;26433;48.034;-1.764;2022-10-16T17:59:55;20.70;93.60
35305;DHT22;26433;48.034;-1.764;2022-10-16T18:04:59;20.70;93.70
35305;DHT22;26433;48.034;-1.764;2022-10-16T18:10:05;21.00;94.00
35305;DHT22;26433;48.034;-1.764;2022-10-16T18:15:13;20.50;94.00
35305;DHT22;26433;48.034;-1.764;2022-10-16T18:20:17;20.50;94.00
35305;DHT22;26433;48.034;-1.764;2022-10-16T18:25:23;20.50;94.00
35305;DHT22;26433;48.034;-1.764;2022-10-16T18:30:27;20.50;93.90
35305;DHT22;26433;48.034;-1.764;2022-10-16T18:35:30;20.50;93.80
35305;DHT22;26433;48.034;-1.764;2022-10-16T18:40:38;20.40;93.80
35305;DHT22;26433;48.034;-1.764;2022-10-16T18:45:42;20.40;93.90
35305;DHT22;26433;48.034;-1.764;2022-10-16T18:50:46;20.30;93.90
35305;DHT22;26433;48.034;-1.764;2022-10-16T18:55:52;20.20;93.90
35305;DHT22;26433;48.034;-1.764;2022-10-16T19:01:02;20.10;94.00
35305;DHT22;26433;48.034;-1.764;2022-10-16T19:06:10;20.00;94.00
35305;DHT22;26433;48.034;-1.764;2022-10-16T19:11:18;20.00;94.00
35305;DHT22;26433;48.034;-1.764;2022-10-16T19:16:25;19.90;94.10
35305;DHT22;26433;48.034;-1.764;2022-10-16T19:21:33;19.80;94.10
35305;DHT22;26433;48.034;-1.764;2022-10-16T19:26:39;19.70;94.10
35305;DHT22;26433;48.034;-1.764;2022-10-16T19:31:44;19.70;94.10
35305;DHT22;26433;48.034;-1.764;2022-10-16T19:36:51;19.60;94.10
35305;DHT22;26433;48.034;-1.764;2022-10-16T19:41:57;19.60;94.10
35305;DHT22;26433;48.034;-1.764;2022-10-16T19:47:02;19.50;94.20
35305;DHT22;26433;48.034;-1.764;2022-10-16T19:52:09;19.40;94.20
35305;DHT22;26433;48.034;-1.764;2022-10-16T19:57:14;19.40;94.30
35305;DHT22;26433;48.034;-1.764;2022-10-16T20:02:19;19.30;94.30
35305;DHT22;26433;48.034;-1.764;2022-10-16T20:07:25;19.30;94.30
35305;DHT22;26433;48.034;-1.764;2022-10-16T20:12:36;19.30;94.20
35305;DHT22;26433;48.034;-1.764;2022-10-16T20:17:41;19.30;94.30
35305;DHT22;26433;48.034;-1.764;2022-10-16T20:22:45;19.30;94.30
35305;DHT22;26433;48.034;-1.764;2022-10-16T20:27:52;19.30;94.20
35305;DHT22;26433;48.034;-1.764;2022-10-16T20:32:56;19.30;94.30
35305;DHT22;26433;48.034;-1.764;2022-10-16T20:38:01;19.40;94.30
35305;DHT22;26433;48.034;-1.764;2022-10-16T20:43:09;19.40;94.20
35305;DHT22;26433;48.034;-1.764;2022-10-16T20:48:14;19.30;94.20
35305;DHT22;26433;48.034;-1.764;2022-10-16T20:53:18;19.30;94.30
35305;DHT22;26433;48.034;-1.764;2022-10-16T20:58:23;19.30;94.30
35305;DHT22;26433;48.034;-1.764;2022-10-16T21:03:27;19.20;94.40
35305;DHT22;26433;48.034;-1.764;2022-10-16T21:08:33;19.10;94.50
35305;DHT22;26433;48.034;-1.764;2022-10-16T21:13:38;19.10;94.50
35305;DHT22;26433;48.034;-1.764;2022-10-16T21:18:42;19.00;94.70
35305;DHT22;26433;48.034;-1.764;2022-10-16T21:23:46;18.90;94.80
35305;DHT22;26433;48.034;-1.764;2022-10-16T21:28:51;18.90;94.90
35305;DHT22;26433;48.034;-1.764;2022-10-16T21:33:55;18.80;95.30
35305;DHT22;26433;48.034;-1.764;2022-10-16T21:38:59;18.70;95.10
35305;DHT22;26433;48.034;-1.764;2022-10-16T21:44:05;18.70;95.10
35305;DHT22;26433;48.034;-1.764;2022-10-16T21:49:11;18.70;95.30
35305;DHT22;26433;48.034;-1.764;2022-10-16T21:54:17;18.60;95.30
35305;DHT22;26433;48.034;-1.764;2022-10-16T21:59:22;18.60;95.30
35305;DHT22;26433;48.034;-1.764;2022-10-16T22:04:26;18.70;95.30
35305;DHT22;26433;48.034;-1.764;2022-10-16T22:09:29;18.60;95.30
35305;DHT22;26433;48.034;-1.764;2022-10-16T22:14:34;18.60;95.30
35305;DHT22;26433;48.034;-1.764;2022-10-16T22:19:38;18.50;95.40
35305;DHT22;26433;48.034;-1.764;2022-10-16T22:24:41;18.50;95.50
35305;DHT22;26433;48.034;-1.764;2022-10-16T22:29:49;18.50;95.70
